createdAt,value
2022-12-25T00:02:01.941Z,62.47
2022-12-25T00:04:28.840Z,62.01
2022-12-25T00:06:56.022Z,61.91
2022-12-25T00:09:22.718Z,61.18
2022-12-25T00:11:49.340Z,61.77
2022-12-25T00:14:16.155Z,61.28
2022-12-25T00:16:42.815Z,61.57
2022-12-25T00:19:09.517Z,61.08
2022-12-25T00:21:36.811Z,60.93
2022-12-25T00:24:03.690Z,60.93
2022-12-25T00:26:30.352Z,61.27
2022-12-25T00:28:57.606Z,61.10
2022-12-25T00:31:25.721Z,61.52
2022-12-25T00:33:52.967Z,62.25
2022-12-25T00:36:22.334Z,63.41
2022-12-25T00:38:49.281Z,63.06
2022-12-25T00:41:38.758Z,62.90
2022-12-25T00:44:06.461Z,64.49
2022-12-25T00:46:33.222Z,65.27
2022-12-25T00:49:00.580Z,64.72
2022-12-25T00:51:27.247Z,66.37
2022-12-25T00:53:53.916Z,67.54
2022-12-25T00:56:20.561Z,66.36
2022-12-25T00:58:47.737Z,64.85
2022-12-25T01:01:14.623Z,65.17
2022-12-25T01:03:42.123Z,66.42
2022-12-25T01:06:10.923Z,66.72
2022-12-25T01:08:59.725Z,66.32
2022-12-25T01:11:26.654Z,67.37
2022-12-25T01:13:53.316Z,67.85
2022-12-25T01:16:19.894Z,68.28
2022-12-25T01:18:46.721Z,69.48
2022-12-25T01:21:18.383Z,69.17
2022-12-25T01:23:45.095Z,69.19
2022-12-25T01:26:12.458Z,68.75
2022-12-25T01:28:39.778Z,68.45
2022-12-25T01:31:10.647Z,68.83
2022-12-25T01:33:38.474Z,68.23
2022-12-25T01:36:15.901Z,69.38
2022-12-25T01:38:43.742Z,69.48
2022-12-25T01:41:11.859Z,69.88
2022-12-25T01:43:56.240Z,70.54
2022-12-25T01:46:22.889Z,70.63
2022-12-25T01:48:49.960Z,70.69
2022-12-25T01:51:29.125Z,69.93
2022-12-25T01:53:59.556Z,69.29
2022-12-25T01:56:29.029Z,69.67
2022-12-25T01:58:57.665Z,69.05
2022-12-25T02:01:24.392Z,68.54
2022-12-25T02:03:57.055Z,69.59
2022-12-25T02:06:23.649Z,68.41
2022-12-25T02:08:51.645Z,69.53
2022-12-25T02:11:37.317Z,69.78
2022-12-25T02:14:03.979Z,69.17
2022-12-25T02:16:35.556Z,68.30
2022-12-25T02:19:25.195Z,67.62
2022-12-25T02:22:06.908Z,66.91
2022-12-25T02:24:50.635Z,67.28
2022-12-25T02:27:27.705Z,66.52
2022-12-25T02:30:03.794Z,67.51
2022-12-25T02:32:52.364Z,67.19
2022-12-25T02:35:28.390Z,66.65
2022-12-25T02:38:16.692Z,65.77
2022-12-25T02:40:51.347Z,66.70
2022-12-25T02:43:46.565Z,67.97
2022-12-25T02:46:35.248Z,67.84
2022-12-25T02:49:41.583Z,66.53
2022-12-25T02:52:41.202Z,65.37
2022-12-25T02:55:35.983Z,66.43
2022-12-25T02:58:27.276Z,65.64
2022-12-25T03:01:18.398Z,64.98
2022-12-25T03:04:05.487Z,65.28
2022-12-25T03:06:46.739Z,64.62
2022-12-25T03:09:42.758Z,66.76
2022-12-25T03:12:15.716Z,67.66
2022-12-25T03:15:01.315Z,67.04
2022-12-25T03:17:28.102Z,66.61
2022-12-25T03:20:13.249Z,67.10
2022-12-25T03:23:02.735Z,67.53
2022-12-25T03:25:48.103Z,67.09
2022-12-25T03:28:15.024Z,67.22
2022-12-25T03:31:06.826Z,68.74
2022-12-25T03:34:10.701Z,70.29
2022-12-25T03:36:40.977Z,69.50
2022-12-25T03:39:42.120Z,69.99
2022-12-25T03:42:37.477Z,69.71
2022-12-25T03:45:41.278Z,69.18
2022-12-25T03:48:28.764Z,67.91
2022-12-25T03:51:22.436Z,66.74
2022-12-25T03:54:13.594Z,67.23
2022-12-25T03:57:00.362Z,68.47
2022-12-25T03:59:45.737Z,69.15
2022-12-25T04:02:31.250Z,69.20
2022-12-25T04:05:16.416Z,68.83
2022-12-25T04:08:02.272Z,68.78
2022-12-25T04:10:47.683Z,67.95
2022-12-25T04:13:34.564Z,68.57
2022-12-25T04:16:20.145Z,68.27
2022-12-25T04:19:05.524Z,68.62
2022-12-25T04:21:50.895Z,67.42
2022-12-25T04:24:36.476Z,68.27
2022-12-25T04:27:21.561Z,68.61
2022-12-25T04:30:06.905Z,69.52
2022-12-25T04:32:52.175Z,70.00
2022-12-25T04:35:37.611Z,70.49
2022-12-25T04:38:04.236Z,70.06
2022-12-25T04:40:30.822Z,69.35
2022-12-25T04:42:57.430Z,68.52
2022-12-25T04:45:24.051Z,67.76
2022-12-25T04:47:50.773Z,67.86
2022-12-25T04:50:17.303Z,67.67
2022-12-25T04:52:43.953Z,65.95
2022-12-25T04:55:11.397Z,65.91
2022-12-25T04:57:38.382Z,66.32
2022-12-25T05:00:07.402Z,65.83
2022-12-25T05:02:34.675Z,64.75
2022-12-25T05:05:01.510Z,63.69
2022-12-25T05:07:28.242Z,63.58
2022-12-25T05:09:54.928Z,64.03
2022-12-25T05:12:21.474Z,62.90
2022-12-25T05:14:48.163Z,63.45
2022-12-25T05:17:14.661Z,63.15
2022-12-25T05:19:41.340Z,62.54
2022-12-25T05:22:07.827Z,61.98
2022-12-25T05:24:34.586Z,62.38
2022-12-25T05:27:01.214Z,62.20
2022-12-25T05:29:28.022Z,62.62
2022-12-25T05:31:54.717Z,62.20
2022-12-25T05:34:21.469Z,62.56
2022-12-25T05:36:48.076Z,63.59
2022-12-25T05:39:14.827Z,65.39
2022-12-25T05:41:41.356Z,66.72
2022-12-25T05:44:07.976Z,66.07
2022-12-25T05:46:34.830Z,65.31
2022-12-25T05:49:01.460Z,63.99
2022-12-25T05:51:28.073Z,65.96
2022-12-25T05:53:54.698Z,67.55
2022-12-25T05:56:21.246Z,68.85
2022-12-25T05:58:48.330Z,67.77
2022-12-25T06:01:19.291Z,67.71
2022-12-25T06:03:46.624Z,68.85
2022-12-25T06:06:13.962Z,69.44
2022-12-25T06:08:41.342Z,70.21
2022-12-25T06:11:14.575Z,71.36
2022-12-25T06:13:41.757Z,70.99
2022-12-25T06:16:11.512Z,69.96
2022-12-25T06:18:41.693Z,70.26
2022-12-25T06:21:10.143Z,70.07
2022-12-25T06:23:38.391Z,69.99
2022-12-25T06:26:10.415Z,70.45
2022-12-25T06:28:37.377Z,69.86
2022-12-25T06:31:09.441Z,68.92
2022-12-25T06:33:36.895Z,68.79
2022-12-25T06:36:11.935Z,69.54
2022-12-25T06:38:38.923Z,68.77
2022-12-25T06:41:11.566Z,69.67
2022-12-25T06:43:38.726Z,69.73
2022-12-25T06:46:10.694Z,69.95
2022-12-25T06:48:39.148Z,71.11
2022-12-25T06:51:06.803Z,69.69
2022-12-25T06:53:40.384Z,68.73
2022-12-25T06:56:10.600Z,69.01
2022-12-25T06:58:37.257Z,68.34
2022-12-25T07:01:15.329Z,68.31
2022-12-25T07:03:44.252Z,68.57
2022-12-25T07:06:11.455Z,68.99
2022-12-25T07:08:38.289Z,68.31
2022-12-25T07:11:05.502Z,69.01
2022-12-25T07:13:32.519Z,68.49
2022-12-25T07:16:01.369Z,67.78
2022-12-25T07:18:29.767Z,67.35
2022-12-25T07:20:56.462Z,67.37
2022-12-25T07:23:23.611Z,67.24
2022-12-25T07:25:54.742Z,67.83
2022-12-25T07:28:21.625Z,67.87
2022-12-25T07:30:48.384Z,68.75
2022-12-25T07:33:15.629Z,68.31
2022-12-25T07:35:42.494Z,69.81
2022-12-25T07:38:09.849Z,69.19
2022-12-25T07:40:36.580Z,68.95
2022-12-25T07:43:03.345Z,68.13
2022-12-25T07:45:30.183Z,67.34
2022-12-25T07:48:05.855Z,67.25
2022-12-25T07:50:34.660Z,65.61
2022-12-25T07:53:01.491Z,65.53
2022-12-25T07:55:28.307Z,65.31
2022-12-25T07:57:55.284Z,65.88
2022-12-25T08:00:22.265Z,66.88
2022-12-25T08:02:50.203Z,67.96
2022-12-25T08:05:17.206Z,67.88
2022-12-25T08:07:43.861Z,68.09
2022-12-25T08:10:10.954Z,66.95
2022-12-25T08:12:37.739Z,68.12
2022-12-25T08:15:04.817Z,68.24
2022-12-25T08:17:31.439Z,67.70
2022-12-25T08:19:57.973Z,66.17
2022-12-25T08:22:25.117Z,66.68
2022-12-25T08:24:51.751Z,67.62
2022-12-25T08:27:18.297Z,66.66
2022-12-25T08:29:45.105Z,66.24
2022-12-25T08:32:11.789Z,66.86
2022-12-25T08:34:38.962Z,67.80
2022-12-25T08:37:05.974Z,69.05
2022-12-25T08:39:32.654Z,67.61
2022-12-25T08:41:59.303Z,67.82
2022-12-25T08:44:25.874Z,68.31
2022-12-25T08:46:53.286Z,69.32
2022-12-25T08:49:19.969Z,68.49
2022-12-25T08:51:46.939Z,68.14
2022-12-25T08:54:13.673Z,67.67
2022-12-25T08:56:40.250Z,67.39
2022-12-25T08:59:06.940Z,67.34
2022-12-25T09:01:33.828Z,66.58
2022-12-25T09:04:00.566Z,66.15
2022-12-25T09:06:27.126Z,67.58
2022-12-25T09:08:53.844Z,66.40
2022-12-25T09:11:21.176Z,65.79
2022-12-25T09:13:48.633Z,65.25
2022-12-25T09:16:18.432Z,64.33
2022-12-25T09:18:45.117Z,64.84
2022-12-25T09:21:14.985Z,66.27
2022-12-25T09:23:42.651Z,66.40
2022-12-25T09:26:13.512Z,66.31
2022-12-25T09:28:43.719Z,65.44
2022-12-25T09:31:13.504Z,65.57
2022-12-25T09:33:40.480Z,65.31
2022-12-25T09:36:08.619Z,63.86
2022-12-25T09:38:36.059Z,63.77
2022-12-25T09:41:50.521Z,64.01
2022-12-25T09:44:23.127Z,63.70
2022-12-25T09:46:56.050Z,64.15
2022-12-25T09:49:35.675Z,63.71
2022-12-25T09:52:19.845Z,64.55
2022-12-25T09:55:20.584Z,62.25
2022-12-25T09:57:54.514Z,62.33
2022-12-25T10:00:23.618Z,62.10
2022-12-25T10:03:12.421Z,61.59
2022-12-25T10:05:57.579Z,60.82
2022-12-25T10:08:52.469Z,61.64
2022-12-25T10:11:40.430Z,60.58
2022-12-25T10:14:07.675Z,60.89
2022-12-25T10:17:12.083Z,60.24
2022-12-25T10:19:58.115Z,59.24
2022-12-25T10:22:47.702Z,58.56
2022-12-25T10:25:21.135Z,58.55
2022-12-25T10:28:03.899Z,57.36
2022-12-25T10:30:31.708Z,56.92
2022-12-25T10:32:58.744Z,57.04
2022-12-25T10:35:29.572Z,56.94
2022-12-25T10:38:11.798Z,56.44
2022-12-25T10:40:53.302Z,54.93
2022-12-25T10:43:28.130Z,54.51
2022-12-25T10:45:54.957Z,54.38
2022-12-25T10:48:33.096Z,54.65
2022-12-25T10:51:00.126Z,54.65
2022-12-25T10:53:29.368Z,54.05
2022-12-25T10:55:58.993Z,55.36
2022-12-25T10:58:26.274Z,55.32
2022-12-25T11:00:57.336Z,53.26
2022-12-25T11:03:29.011Z,54.17
2022-12-25T11:05:56.034Z,53.88
2022-12-25T11:08:25.559Z,54.32
2022-12-25T11:11:07.801Z,54.40
2022-12-25T11:13:47.424Z,54.46
2022-12-25T11:16:25.820Z,55.44
2022-12-25T11:18:54.461Z,57.85
2022-12-25T11:21:33.671Z,58.82
2022-12-25T11:24:00.360Z,58.98
2022-12-25T11:26:29.676Z,56.42
2022-12-25T11:28:56.940Z,55.95
2022-12-25T11:31:39.323Z,56.04
2022-12-25T11:34:14.748Z,56.69
2022-12-25T11:36:50.024Z,56.41
2022-12-25T11:39:23.933Z,56.38
2022-12-25T11:42:13.495Z,54.75
2022-12-25T11:44:51.448Z,55.22
2022-12-25T11:47:35.047Z,53.79
2022-12-25T11:50:07.418Z,53.99
2022-12-25T11:52:38.855Z,53.50
2022-12-25T11:55:16.910Z,53.98
2022-12-25T11:57:47.955Z,55.22
2022-12-25T12:00:16.310Z,54.63
2022-12-25T12:02:53.819Z,54.30
2022-12-25T12:05:29.582Z,54.54
2022-12-25T12:08:02.467Z,53.78
2022-12-25T12:10:34.785Z,53.26
2022-12-25T12:13:13.720Z,51.71
2022-12-25T12:15:50.458Z,52.44
2022-12-25T12:18:29.771Z,51.77
2022-12-25T12:21:05.197Z,51.52
2022-12-25T12:23:36.040Z,49.99
2022-12-25T12:26:04.480Z,49.06
2022-12-25T12:28:44.722Z,48.42
2022-12-25T12:31:12.161Z,49.78
2022-12-25T12:33:44.118Z,50.67
2022-12-25T12:36:14.630Z,50.77
2022-12-25T12:38:43.664Z,50.60
2022-12-25T12:41:12.556Z,50.89
2022-12-25T12:43:42.524Z,51.14
2022-12-25T12:46:31.061Z,49.20
2022-12-25T12:49:20.129Z,49.19
2022-12-25T12:51:46.922Z,49.38
2022-12-25T12:54:24.933Z,50.29
2022-12-25T12:57:04.403Z,51.33
2022-12-25T12:59:44.521Z,53.21
2022-12-25T13:02:36.331Z,52.21
2022-12-25T13:05:14.330Z,51.74
2022-12-25T13:07:59.331Z,51.35
2022-12-25T13:10:34.998Z,50.97
2022-12-25T13:13:06.908Z,53.18
2022-12-25T13:15:35.282Z,53.30
2022-12-25T13:18:06.718Z,51.82
2022-12-25T13:20:46.910Z,52.07
2022-12-25T13:23:23.673Z,52.23
2022-12-25T13:25:55.490Z,53.51
2022-12-25T13:28:30.211Z,53.99
2022-12-25T13:31:05.672Z,54.41
2022-12-25T13:33:33.495Z,55.16
2022-12-25T13:36:00.317Z,55.15
2022-12-25T13:38:28.976Z,55.73
2022-12-25T13:41:15.657Z,56.49
2022-12-25T13:43:44.516Z,55.93
2022-12-25T13:46:14.391Z,56.23
2022-12-25T13:48:42.060Z,55.83
2022-12-25T13:51:16.899Z,55.72
2022-12-25T13:53:44.151Z,55.13
2022-12-25T13:56:16.211Z,54.71
2022-12-25T13:58:44.747Z,53.61
2022-12-25T14:01:16.255Z,52.61
2022-12-25T14:03:46.233Z,52.31
2022-12-25T14:06:20.979Z,51.08
2022-12-25T14:08:48.587Z,50.43
2022-12-25T14:11:18.053Z,50.21
2022-12-25T14:13:47.852Z,50.19
2022-12-25T14:16:18.709Z,50.49
2022-12-25T14:19:00.673Z,50.33
2022-12-25T14:21:32.791Z,50.90
2022-12-25T14:24:00.113Z,51.50
2022-12-25T14:26:32.071Z,51.95
2022-12-25T14:29:04.949Z,52.12
2022-12-25T14:31:32.859Z,51.68
2022-12-25T14:34:03.044Z,51.48
2022-12-25T14:36:31.606Z,50.92
2022-12-25T14:39:00.655Z,51.04
2022-12-25T14:41:39.492Z,51.49
2022-12-25T14:44:26.183Z,51.81
2022-12-25T14:47:23.782Z,51.83
2022-12-25T14:49:51.056Z,51.99
2022-12-25T14:52:31.662Z,51.93
2022-12-25T14:55:04.894Z,52.42
2022-12-25T14:57:38.516Z,52.74
2022-12-25T15:00:18.635Z,54.65
2022-12-25T15:02:47.327Z,56.02
2022-12-25T15:05:28.423Z,56.34
2022-12-25T15:08:13.222Z,57.38
2022-12-25T15:13:28.592Z,56.86
2022-12-25T15:16:12.243Z,57.09
2022-12-25T15:18:42.029Z,57.26
2022-12-25T15:21:30.356Z,57.21
2022-12-25T15:23:59.113Z,55.60
2022-12-25T15:26:27.297Z,54.42
2022-12-25T15:28:53.996Z,54.61
2022-12-25T15:31:31.901Z,53.68
2022-12-25T15:34:01.781Z,53.86
2022-12-25T15:36:29.037Z,53.36
2022-12-25T15:38:56.449Z,53.51
2022-12-25T15:42:03.851Z,53.64
2022-12-25T15:44:30.603Z,53.90
2022-12-25T15:46:58.408Z,53.86
2022-12-25T15:49:25.113Z,53.81
2022-12-25T15:51:51.754Z,54.39
2022-12-25T15:54:18.699Z,54.18
2022-12-25T15:56:58.401Z,54.09
2022-12-25T15:59:25.053Z,54.04
2022-12-25T16:01:54.597Z,54.21
2022-12-25T16:04:22.203Z,54.25
2022-12-25T16:06:49.272Z,54.84
2022-12-25T16:09:16.862Z,54.75
2022-12-25T16:11:43.770Z,54.91
2022-12-25T16:14:10.630Z,54.96
2022-12-25T16:16:37.833Z,55.63
2022-12-25T16:19:05.440Z,55.56
2022-12-25T16:21:39.294Z,56.00
2022-12-25T16:24:06.331Z,56.02
2022-12-25T16:26:33.526Z,56.99
2022-12-25T16:29:06.807Z,56.17
2022-12-25T16:31:34.209Z,56.09
2022-12-25T16:34:01.545Z,56.94
2022-12-25T16:36:28.643Z,57.32
2022-12-25T16:38:55.388Z,57.32
2022-12-25T16:41:22.723Z,58.06
2022-12-25T16:43:49.666Z,58.77
2022-12-25T16:46:19.238Z,57.82
2022-12-25T16:48:46.142Z,57.75
2022-12-25T16:51:19.725Z,58.03
2022-12-25T16:53:47.258Z,57.69
2022-12-25T16:56:17.150Z,58.74
2022-12-25T16:58:48.501Z,58.74
2022-12-25T17:01:17.438Z,59.77
2022-12-25T17:03:44.759Z,60.67
2022-12-25T17:06:20.573Z,61.92
2022-12-25T17:08:47.622Z,62.61
2022-12-25T17:11:15.455Z,63.92
2022-12-25T17:13:47.460Z,62.41
2022-12-25T17:16:15.260Z,63.49
2022-12-25T17:18:41.992Z,63.20
2022-12-25T17:21:09.416Z,64.08
2022-12-25T17:23:39.223Z,64.92
2022-12-25T17:26:06.294Z,65.96
2022-12-25T17:28:34.659Z,65.84
2022-12-25T17:31:06.813Z,66.51
2022-12-25T17:33:36.403Z,66.53
2022-12-25T17:36:04.709Z,66.96
2022-12-25T17:38:32.671Z,66.77
2022-12-25T17:41:01.220Z,66.10
2022-12-25T17:43:28.825Z,65.28
2022-12-25T17:45:55.525Z,65.31
2022-12-25T17:48:22.149Z,64.88
2022-12-25T17:50:48.797Z,64.59
2022-12-25T17:53:15.521Z,65.16
2022-12-25T17:55:42.399Z,65.65
2022-12-25T17:58:09.256Z,65.43
2022-12-25T18:00:36.664Z,65.12
2022-12-25T18:03:10.804Z,65.18
2022-12-25T18:05:38.516Z,65.15
2022-12-25T18:08:05.417Z,65.64
2022-12-25T18:10:42.031Z,66.63
2022-12-25T18:13:10.778Z,65.59
2022-12-25T18:15:39.800Z,65.53
2022-12-25T18:18:08.370Z,65.50
2022-12-25T18:20:39.807Z,64.76
2022-12-25T18:23:08.048Z,64.62
2022-12-25T18:25:34.823Z,65.08
2022-12-25T18:28:02.793Z,64.54
2022-12-25T18:30:29.723Z,63.86
2022-12-25T18:32:56.341Z,64.11
2022-12-25T18:35:23.427Z,63.30
2022-12-25T18:37:50.156Z,62.95
2022-12-25T18:40:17.133Z,63.11
2022-12-25T18:42:46.465Z,63.08
2022-12-25T18:45:14.763Z,62.35
2022-12-25T18:47:41.572Z,63.02
2022-12-25T18:50:09.772Z,63.61
2022-12-25T18:52:49.977Z,64.20
2022-12-25T18:55:17.565Z,63.44
2022-12-25T18:57:44.608Z,65.10
2022-12-25T19:00:11.702Z,65.43
2022-12-25T19:02:38.694Z,65.50
2022-12-25T19:05:06.026Z,64.25
2022-12-25T19:07:32.776Z,65.27
2022-12-25T19:09:59.664Z,65.55
2022-12-25T19:12:26.369Z,65.50
2022-12-25T19:14:53.025Z,65.24
2022-12-25T19:17:19.660Z,66.11
2022-12-25T19:19:46.545Z,66.42
2022-12-25T19:22:13.589Z,65.76
2022-12-25T19:24:40.343Z,65.52
2022-12-25T19:27:07.299Z,64.59
2022-12-25T19:29:34.480Z,64.22
2022-12-25T19:32:01.564Z,64.83
2022-12-25T19:34:28.341Z,64.93
2022-12-25T19:36:54.887Z,64.82
2022-12-25T19:39:24.790Z,65.50
2022-12-25T19:41:51.441Z,65.81
2022-12-25T19:44:19.992Z,65.59
2022-12-25T19:46:46.710Z,64.90
2022-12-25T19:49:14.053Z,64.68
2022-12-25T19:51:44.220Z,64.81
2022-12-25T19:54:15.938Z,64.57
2022-12-25T19:56:43.350Z,63.72
2022-12-25T19:59:11.885Z,62.42
2022-12-25T20:01:39.488Z,61.30
2022-12-25T20:04:08.785Z,59.34
2022-12-25T20:06:38.397Z,62.49
2022-12-25T20:09:14.977Z,61.56
2022-12-25T20:11:43.139Z,59.13
2022-12-25T20:14:13.554Z,61.68
2022-12-25T20:16:40.960Z,62.09
2022-12-25T20:19:08.188Z,61.88
2022-12-25T20:21:35.122Z,60.32
2022-12-25T20:24:01.989Z,61.41
2022-12-25T20:26:30.884Z,60.18
2022-12-25T20:28:58.592Z,59.97
2022-12-25T20:31:30.755Z,57.53
2022-12-25T20:33:59.671Z,58.52
2022-12-25T20:36:31.200Z,58.21
2022-12-25T20:39:03.655Z,57.83
2022-12-25T20:41:30.591Z,57.81
2022-12-25T20:43:58.064Z,57.19
2022-12-25T20:46:26.032Z,56.78
2022-12-25T20:48:53.733Z,57.05
2022-12-25T20:51:23.391Z,56.60
2022-12-25T20:53:51.254Z,58.60
2022-12-25T20:56:21.113Z,59.49
2022-12-25T20:58:52.133Z,59.95
2022-12-25T21:01:18.931Z,59.21
2022-12-25T21:03:45.942Z,59.22
2022-12-25T21:06:12.955Z,60.21
2022-12-25T21:08:41.491Z,60.91
2022-12-25T21:11:08.648Z,61.76
2022-12-25T21:13:41.773Z,62.26
2022-12-25T21:16:12.154Z,62.67
2022-12-25T21:18:39.301Z,61.92
2022-12-25T21:21:07.762Z,61.06
2022-12-25T21:23:36.613Z,60.74
2022-12-25T21:26:31.788Z,61.84
2022-12-25T21:29:00.848Z,62.23
2022-12-25T21:31:28.626Z,60.31
2022-12-25T21:33:57.700Z,60.86
2022-12-25T21:36:29.971Z,61.44
2022-12-25T21:39:02.529Z,60.40
2022-12-25T21:41:30.838Z,58.73
2022-12-25T21:43:57.816Z,59.43
2022-12-25T21:46:26.131Z,60.33
2022-12-25T21:48:53.538Z,61.27
2022-12-25T21:51:44.502Z,60.74
2022-12-25T21:54:12.491Z,60.28
2022-12-25T21:56:44.471Z,60.45
2022-12-25T21:59:15.490Z,61.01
2022-12-25T22:01:42.784Z,62.93
2022-12-25T22:04:11.164Z,62.87
2022-12-25T22:06:56.409Z,63.68
2022-12-25T22:09:23.229Z,63.99
2022-12-25T22:12:08.583Z,64.05
2022-12-25T22:14:54.360Z,64.31
2022-12-25T22:17:42.410Z,64.47
2022-12-25T22:20:15.762Z,64.15
2022-12-25T22:22:42.749Z,63.16
2022-12-25T22:25:10.863Z,62.39
2022-12-25T22:27:39.230Z,63.17
2022-12-25T22:30:07.974Z,63.87
2022-12-25T22:32:34.864Z,64.52
2022-12-25T22:35:01.829Z,62.89
2022-12-25T22:37:28.543Z,62.79
2022-12-25T22:39:55.247Z,64.74
2022-12-25T22:42:22.380Z,60.90
2022-12-25T22:44:49.220Z,59.84
2022-12-25T22:47:15.960Z,58.89
2022-12-25T22:49:43.044Z,64.11
2022-12-25T22:52:10.102Z,63.38
2022-12-25T22:54:37.243Z,64.25
2022-12-25T22:57:04.626Z,63.25
2022-12-25T22:59:32.927Z,62.21
2022-12-25T23:02:00.687Z,63.43
2022-12-25T23:04:28.532Z,65.76
2022-12-25T23:06:55.486Z,62.29
2022-12-25T23:09:29.468Z,63.69
2022-12-25T23:11:58.122Z,63.75
2022-12-25T23:14:41.753Z,64.47
2022-12-25T23:17:31.654Z,65.89
2022-12-25T23:20:18.725Z,65.76
2022-12-25T23:23:05.166Z,67.84
2022-12-25T23:25:52.464Z,68.70
2022-12-25T23:28:39.251Z,67.69
2022-12-25T23:31:06.161Z,66.90
2022-12-25T23:33:32.793Z,65.88
2022-12-25T23:35:59.329Z,66.24
2022-12-25T23:38:26.319Z,66.29
2022-12-25T23:40:53.018Z,64.59
2022-12-25T23:43:19.661Z,65.54
2022-12-25T23:45:46.289Z,65.95
2022-12-25T23:48:13.065Z,65.88
2022-12-25T23:50:39.780Z,64.61
2022-12-25T23:53:06.522Z,65.49
2022-12-25T23:55:33.733Z,66.21
2022-12-25T23:58:01.119Z,66.05
